^^
MeteoGriva-Weather Station Historical Data
Daily Summary for October 27, 2020 Units:  Both    English   Metric
Daily Weekly Monthly Yearly Custom
  High: Low: Average:
Temperature: 67.6 °F /  19.8 °C 53.8 °F /  12.1 °C 59.9 °F /  15.5 °C
Dew Point: 60.8 °F /  16 °C 49.8 °F /  9.9 °C 55.2 °F /  12.9 °C
Humidity: 99% 70.6% 85%
Wind Speed: 4.4mph /  7.1km/h - 0.4mph /  0.7km/h
Wind Gust: 10.1mph /  16.3km/h - -
Wind- - SSE
Pressure: 29.9 in /  1012.9 hPa 29.8 in /  1009.1 hPa -
Precipitation: 0 in /  0.0 mm    
Historical Graphs
 
 
Tabular Data for October 27, 2020
Time Temperature Dew Point Pressure Wind Wind Speed Wind Gust Humidity Rainfall Rate (Hourly) solar
00:04 56.5 °F /  13.6 °C 51.8 °F /  11 °C 29.9in /  1011.5hPa Calm     84.4% 0in /  0.0mm 0 W/m2
00:09 56.1 °F /  13.4 °C 51.3 °F /  10.7 °C 29.9in /  1011.5hPa Calm     83.8% 0in /  0.0mm 0 W/m2
00:14 55.8 °F /  13.2 °C 50.9 °F /  10.5 °C 29.9in /  1011.9hPa Calm     83.7% 0in /  0.0mm 0 W/m2
00:19 55.8 °F /  13.2 °C 51.3 °F /  10.7 °C 29.9in /  1011.5hPa Calm     84.4% 0in /  0.0mm 0 W/m2
00:24 55.8 °F /  13.2 °C 51.1 °F /  10.6 °C 29.9in /  1011.9hPa Calm     84% 0in /  0.0mm 0 W/m2
00:29 55.8 °F /  13.2 °C 51.1 °F /  10.6 °C 29.9in /  1011.5hPa Calm     84.2% 0in /  0.0mm 0 W/m2
00:34 55.8 °F /  13.2 °C 51.3 °F /  10.7 °C 29.9in /  1011.5hPa Calm     85% 0in /  0.0mm 0 W/m2
00:39 55.8 °F /  13.2 °C 51.3 °F /  10.7 °C 29.9in /  1011.9hPa Calm     84.4% 0in /  0.0mm 0 W/m2
00:44 55.8 °F /  13.2 °C 50.9 °F /  10.5 °C 29.9in /  1011.9hPa Calm     83.7% 0in /  0.0mm 0 W/m2
00:49 55.8 °F /  13.2 °C 51.3 °F /  10.7 °C 29.9in /  1011.5hPa Calm     85.1% 0in /  0.0mm 0 W/m2
00:54 55 °F /  12.8 °C 50.9 °F /  10.5 °C 29.9in /  1011.5hPa Calm     85.8% 0in /  0.0mm 0 W/m2
00:59 55.2 °F /  12.9 °C 50.7 °F /  10.4 °C 29.9in /  1011.5hPa Calm     84.7% 0in /  0.0mm 0 W/m2
01:04 55.4 °F /  13 °C 50.7 °F /  10.4 °C 29.9in /  1011.9hPa Calm     84.3% 0in /  0.0mm 0 W/m2
01:09 55.8 °F /  13.2 °C 51.1 °F /  10.6 °C 29.9in /  1011.9hPa Calm     84.7% 0in /  0.0mm 0 W/m2
01:14 56.5 °F /  13.6 °C 52 °F /  11.1 °C 29.9in /  1011.9hPa Calm     85.1% 0in /  0.0mm 0 W/m2
01:19 56.5 °F /  13.6 °C 52.3 °F /  11.3 °C 29.9in /  1011.9hPa Calm     85.9% 0in /  0.0mm 0 W/m2
01:24 56.5 °F /  13.6 °C 52.3 °F /  11.3 °C 29.9in /  1011.9hPa Calm     85.9% 0in /  0.0mm 0 W/m2
01:29 56.5 °F /  13.6 °C 52 °F /  11.1 °C 29.9in /  1011.9hPa Calm     85% 0in /  0.0mm 0 W/m2
01:34 56.5 °F /  13.6 °C 52.3 °F /  11.3 °C 29.9in /  1011.9hPa Calm     86% 0in /  0.0mm 0 W/m2
01:39 56.5 °F /  13.6 °C 52.2 °F /  11.2 °C 29.9in /  1011.9hPa Calm     85.6% 0in /  0.0mm 0 W/m2
01:44 56.7 °F /  13.7 °C 52.5 °F /  11.4 °C 29.9in /  1011.9hPa Calm     85.9% 0in /  0.0mm 0 W/m2
01:49 56.5 °F /  13.6 °C 52.3 °F /  11.3 °C 29.9in /  1011.9hPa Calm     86.2% 0in /  0.0mm 0 W/m2
01:54 55.9 °F /  13.3 °C 51.8 °F /  11 °C 29.9in /  1011.9hPa Calm     86% 0in /  0.0mm 0 W/m2
01:59 55.9 °F /  13.3 °C 51.8 °F /  11 °C 29.9in /  1011.9hPa Calm     86% 0in /  0.0mm 0 W/m2
02:04 55.9 °F /  13.3 °C 51.4 °F /  10.8 °C 29.9in /  1011.9hPa Calm     85% 0in /  0.0mm 0 W/m2
02:09 55.9 °F /  13.3 °C 51.4 °F /  10.8 °C 29.9in /  1011.9hPa Calm     84.4% 0in /  0.0mm 0 W/m2
02:14 56.3 °F /  13.5 °C 51.6 °F /  10.9 °C 29.9in /  1011.9hPa Calm     84.6% 0in /  0.0mm 0 W/m2
02:19 56.3 °F /  13.5 °C 51.6 °F /  10.9 °C 29.9in /  1011.9hPa Calm     84.6% 0in /  0.0mm 0 W/m2
02:24 56.3 °F /  13.5 °C 51.8 °F /  11 °C 29.9in /  1011.9hPa Calm     85% 0in /  0.0mm 0 W/m2
02:29 56.3 °F /  13.5 °C 51.8 °F /  11 °C 29.9in /  1011.9hPa Calm     84.9% 0in /  0.0mm 0 W/m2
02:34 56.5 °F /  13.6 °C 52 °F /  11.1 °C 29.9in /  1011.9hPa Calm     85% 0in /  0.0mm 0 W/m2
02:39 56.3 °F /  13.5 °C 51.8 °F /  11 °C 29.9in /  1011.5hPa Calm     85.1% 0in /  0.0mm 0 W/m2
02:44 56.3 °F /  13.5 °C 51.8 °F /  11 °C 29.9in /  1011.5hPa Calm     85.2% 0in /  0.0mm 0 W/m2
02:49 56.3 °F /  13.5 °C 51.8 °F /  11 °C 29.9in /  1011.9hPa Calm     85.2% 0in /  0.0mm 0 W/m2
02:54 56.3 °F /  13.5 °C 52.2 °F /  11.2 °C 29.9in /  1011.9hPa Calm     86.3% 0in /  0.0mm 0 W/m2
02:59 56.1 °F /  13.4 °C 52 °F /  11.1 °C 29.9in /  1011.5hPa Calm     86% 0in /  0.0mm 0 W/m2
03:04 56.1 °F /  13.4 °C 52 °F /  11.1 °C 29.9in /  1011.5hPa Calm     86.2% 0in /  0.0mm 0 W/m2
03:09 56.1 °F /  13.4 °C 52.2 °F /  11.2 °C 29.9in /  1011.5hPa Calm     86.4% 0in /  0.0mm 0 W/m2
03:14 56.3 °F /  13.5 °C 52.2 °F /  11.2 °C 29.9in /  1011.5hPa Calm     86% 0in /  0.0mm 0 W/m2
03:19 56.1 °F /  13.4 °C 52 °F /  11.1 °C 29.9in /  1011.2hPa Calm     85.8% 0in /  0.0mm 0 W/m2
03:24 56.3 °F /  13.5 °C 51.8 °F /  11 °C 29.9in /  1011.2hPa Calm     85% 0in /  0.0mm 0 W/m2
03:29 56.3 °F /  13.5 °C 51.8 °F /  11 °C 29.9in /  1011.2hPa Calm     85% 0in /  0.0mm 0 W/m2
03:34 55.9 °F /  13.3 °C 52 °F /  11.1 °C 29.9in /  1011.2hPa Calm     86.7% 0in /  0.0mm 0 W/m2
03:39 55.8 °F /  13.2 °C 52 °F /  11.1 °C 29.9in /  1011.2hPa Calm     86.8% 0in /  0.0mm 0 W/m2
03:44 55.8 °F /  13.2 °C 51.6 °F /  10.9 °C 29.9in /  1011.2hPa Calm     86% 0in /  0.0mm 0 W/m2
03:49 55.8 °F /  13.2 °C 51.6 °F /  10.9 °C 29.9in /  1010.8hPa Calm     85.9% 0in /  0.0mm 0 W/m2
03:54 55.9 °F /  13.3 °C 51.4 °F /  10.8 °C 29.9in /  1010.8hPa Calm     85.3% 0in /  0.0mm 0 W/m2
03:59 55.9 °F /  13.3 °C 51.4 °F /  10.8 °C 29.9in /  1011.2hPa Calm     85% 0in /  0.0mm 0 W/m2
04:04 55.9 °F /  13.3 °C 51.4 °F /  10.8 °C 29.9in /  1011.2hPa Calm     85.2% 0in /  0.0mm 0 W/m2
04:09 55.9 °F /  13.3 °C 52.2 °F /  11.2 °C 29.9in /  1011.2hPa Calm     86.9% 0in /  0.0mm 0 W/m2
04:14 55 °F /  12.8 °C 51.4 °F /  10.8 °C 29.9in /  1011.2hPa Calm     87% 0in /  0.0mm 0 W/m2
04:19 54.9 °F /  12.7 °C 51.1 °F /  10.6 °C 29.9in /  1011.2hPa Calm     87% 0in /  0.0mm 0 W/m2
04:24 54.9 °F /  12.7 °C 51.3 °F /  10.7 °C 29.9in /  1010.8hPa Calm     87.4% 0in /  0.0mm 0 W/m2
04:29 54.9 °F /  12.7 °C 51.4 °F /  10.8 °C 29.9in /  1010.8hPa Calm     88.2% 0in /  0.0mm 0 W/m2
04:34 54.5 °F /  12.5 °C 51.1 °F /  10.6 °C 29.9in /  1010.8hPa Calm     88.5% 0in /  0.0mm 0 W/m2
04:39 54.3 °F /  12.4 °C 51.1 °F /  10.6 °C 29.9in /  1010.8hPa Calm     88.6% 0in /  0.0mm 0 W/m2
04:44 54.3 °F /  12.4 °C 50.9 °F /  10.5 °C 29.9in /  1010.8hPa Calm     88% 0in /  0.0mm 0 W/m2
04:49 54.3 °F /  12.4 °C 51.1 °F /  10.6 °C 29.9in /  1010.8hPa Calm     88.8% 0in /  0.0mm 0 W/m2
04:54 54.7 °F /  12.6 °C 51.1 °F /  10.6 °C 29.9in /  1011.2hPa Calm     87.7% 0in /  0.0mm 0 W/m2
04:59 54.7 °F /  12.6 °C 50.4 °F /  10.2 °C 29.9in /  1010.8hPa Calm     85.7% 0in /  0.0mm 0 W/m2
05:04 54.9 °F /  12.7 °C 50.4 °F /  10.2 °C 29.9in /  1011.2hPa Calm     85% 0in /  0.0mm 0 W/m2
05:09 55 °F /  12.8 °C 50.5 °F /  10.3 °C 29.9in /  1011.2hPa Calm     84.5% 0in /  0.0mm 0 W/m2
05:14 55.8 °F /  13.2 °C 50.9 °F /  10.5 °C 29.9in /  1011.2hPa Calm     83.1% 0in /  0.0mm 0 W/m2
05:19 56.1 °F /  13.4 °C 50.9 °F /  10.5 °C 29.9in /  1011.2hPa Calm     82.7% 0in /  0.0mm 0 W/m2
05:24 56.1 °F /  13.4 °C 50.9 °F /  10.5 °C 29.9in /  1010.8hPa Calm     82.4% 0in /  0.0mm 0 W/m2
05:29 55.9 °F /  13.3 °C 50.9 °F /  10.5 °C 29.9in /  1011.2hPa Calm     82.9% 0in /  0.0mm 0 W/m2
05:34 55.2 °F /  12.9 °C 50.5 °F /  10.3 °C 29.9in /  1011.2hPa Calm     84.1% 0in /  0.0mm 0 W/m2
05:39 54.9 °F /  12.7 °C 50.2 °F /  10.1 °C 29.9in /  1011.2hPa Calm     84.1% 0in /  0.0mm 0 W/m2
05:44 54.9 °F /  12.7 °C 50.5 °F /  10.3 °C 29.9in /  1011.2hPa Calm     85.8% 0in /  0.0mm 0 W/m2
05:49 54.7 °F /  12.6 °C 51.1 °F /  10.6 °C 29.9in /  1011.2hPa Calm     87.7% 0in /  0.0mm 0 W/m2
05:54 54 °F /  12.2 °C 50.4 °F /  10.2 °C 29.9in /  1011.2hPa Calm     87.4% 0in /  0.0mm 0 W/m2
05:59 53.8 °F /  12.1 °C 49.8 °F /  9.9 °C 29.9in /  1011.2hPa Calm     86.3% 0in /  0.0mm 0 W/m2
06:04 54 °F /  12.2 °C 49.8 °F /  9.9 °C 29.9in /  1011.2hPa Calm     86% 0in /  0.0mm 0 W/m2
06:09 54.1 °F /  12.3 °C 49.8 °F /  9.9 °C 29.9in /  1011.2hPa Calm     85.4% 0in /  0.0mm 0 W/m2
06:14 54.7 °F /  12.6 °C 50.5 °F /  10.3 °C 29.9in /  1011.2hPa Calm     86% 0in /  0.0mm 0 W/m2
06:19 55 °F /  12.8 °C 51.4 °F /  10.8 °C 29.9in /  1011.5hPa Calm     87.2% 0in /  0.0mm 0 W/m2
06:24 54.9 °F /  12.7 °C 51.6 °F /  10.9 °C 29.9in /  1011.2hPa Calm     88.6% 0in /  0.0mm 0 W/m2
06:29 54.7 °F /  12.6 °C 51.1 °F /  10.6 °C 29.9in /  1011.2hPa Calm     87.2% 0in /  0.0mm 0 W/m2
06:34 54.5 °F /  12.5 °C 50.5 °F /  10.3 °C 29.9in /  1011.2hPa Calm     86.4% 0in /  0.0mm 0 W/m2
06:39 54.5 °F /  12.5 °C 50.4 °F /  10.2 °C 29.9in /  1011.2hPa Calm     86.1% 0in /  0.0mm 0 W/m2
06:44 54.5 °F /  12.5 °C 50.5 °F /  10.3 °C 29.9in /  1011.5hPa Calm     86.4% 0in /  0.0mm 0 W/m2
06:49 54.5 °F /  12.5 °C 50.7 °F /  10.4 °C 29.9in /  1011.5hPa Calm     86.8% 0in /  0.0mm 0 W/m2
06:54 54.7 °F /  12.6 °C 50.7 °F /  10.4 °C 29.9in /  1011.5hPa Calm     86.6% 0in /  0.0mm 0 W/m2
06:59 54.7 °F /  12.6 °C 50.5 °F /  10.3 °C 29.9in /  1011.5hPa Calm     86% 0in /  0.0mm 0 W/m2
07:04 54.7 °F /  12.6 °C 50.7 °F /  10.4 °C 29.9in /  1011.5hPa Calm     86.6% 0in /  0.0mm 5 W/m2
07:09 54.7 °F /  12.6 °C 51.3 °F /  10.7 °C 29.9in /  1011.5hPa Calm     87.8% 0in /  0.0mm 8 W/m2
07:14 54.7 °F /  12.6 °C 50.9 °F /  10.5 °C 29.9in /  1011.5hPa Calm     86.9% 0in /  0.0mm 13 W/m2
07:19 54.7 °F /  12.6 °C 50.4 °F /  10.2 °C 29.9in /  1011.5hPa Calm     85.8% 0in /  0.0mm 19 W/m2
07:24 54.7 °F /  12.6 °C 50.2 °F /  10.1 °C 29.9in /  1011.5hPa Calm     85% 0in /  0.0mm 24 W/m2
07:29 54.9 °F /  12.7 °C 50.2 °F /  10.1 °C 29.9in /  1011.9hPa Calm     84.1% 0in /  0.0mm 30 W/m2
07:34 55.8 °F /  13.2 °C 50.7 °F /  10.4 °C 29.9in /  1011.9hPa Calm     83.4% 0in /  0.0mm 36 W/m2
07:39 56.3 °F /  13.5 °C 51.3 °F /  10.7 °C 29.9in /  1011.9hPa Calm     82.8% 0in /  0.0mm 42 W/m2
07:44 56.7 °F /  13.7 °C 51.6 °F /  10.9 °C 29.9in /  1012.2hPa Calm     83.4% 0in /  0.0mm 47 W/m2
07:49 56.8 °F /  13.8 °C 51.8 °F /  11 °C 29.9in /  1012.2hPa Calm     83% 0in /  0.0mm 52 W/m2
07:54 57.6 °F /  14.2 °C 52.5 °F /  11.4 °C 29.9in /  1012.2hPa Calm     82.6% 0in /  0.0mm 57 W/m2
07:59 58.5 °F /  14.7 °C 52.7 °F /  11.5 °C 29.9in /  1012.2hPa Calm     80.9% 0in /  0.0mm 62 W/m2
08:04 58.6 °F /  14.8 °C 51.8 °F /  11 °C 29.9in /  1012.5hPa Calm     77.8% 0in /  0.0mm 66 W/m2
08:09 59.2 °F /  15.1 °C 51.6 °F /  10.9 °C 29.9in /  1012.5hPa Calm     76.1% 0in /  0.0mm 71 W/m2
08:14 60.8 °F /  16 °C 52.9 °F /  11.6 °C 29.9in /  1012.5hPa Calm     75.7% 0in /  0.0mm 75 W/m2
08:19 62.1 °F /  16.7 °C 54 °F /  12.2 °C 29.9in /  1012.5hPa Calm     74.8% 0in /  0.0mm 80 W/m2
08:24 62.1 °F /  16.7 °C 54.3 °F /  12.4 °C 29.9in /  1012.5hPa Calm     75.8% 0in /  0.0mm 82 W/m2
08:29 62.1 °F /  16.7 °C 54 °F /  12.2 °C 29.9in /  1012.5hPa Calm     74.9% 0in /  0.0mm 85 W/m2
08:34 63 °F /  17.2 °C 54.9 °F /  12.7 °C 29.9in /  1012.5hPa Calm     74.9% 0in /  0.0mm 87 W/m2
08:39 63.9 °F /  17.7 °C 55.4 °F /  13 °C 29.9in /  1012.5hPa Calm     73.9% 0in /  0.0mm 90 W/m2
08:44 63.9 °F /  17.7 °C 55.9 °F /  13.3 °C 29.9in /  1012.9hPa Calm     75.4% 0in /  0.0mm 92 W/m2
08:49 63.9 °F /  17.7 °C 55.6 °F /  13.1 °C 29.9in /  1012.9hPa Calm     74.6% 0in /  0.0mm 94 W/m2
08:54 64.4 °F /  18 °C 55.4 °F /  13 °C 29.9in /  1012.5hPa Calm     72.7% 0in /  0.0mm 97 W/m2
08:59 65.5 °F /  18.6 °C 56.3 °F /  13.5 °C 29.9in /  1012.5hPa Calm     71.9% 0in /  0.0mm 98 W/m2
09:04 65.7 °F /  18.7 °C 55.8 °F /  13.2 °C 29.9in /  1012.9hPa Calm     70.6% 0in /  0.0mm 100 W/m2
09:09 65.7 °F /  18.7 °C 56.8 °F /  13.8 °C 29.9in /  1012.5hPa Calm     73.3% 0in /  0.0mm 102 W/m2
09:14 65.3 °F /  18.5 °C 56.8 °F /  13.8 °C 29.9in /  1012.5hPa Calm     74.3% 0in /  0.0mm 103 W/m2
09:19 64.2 °F /  17.9 °C 56.3 °F /  13.5 °C 29.9in /  1012.5hPa Calm     75.3% 0in /  0.0mm 104 W/m2
09:24 64 °F /  17.8 °C 57.2 °F /  14 °C 29.9in /  1012.5hPa Calm     78.6% 0in /  0.0mm 105 W/m2
09:29 63.5 °F /  17.5 °C 57 °F /  13.9 °C 29.9in /  1012.5hPa Calm     79.6% 0in /  0.0mm 107 W/m2
09:34 62.8 °F /  17.1 °C 56.3 °F /  13.5 °C 29.9in /  1012.5hPa Calm     79.8% 0in /  0.0mm 109 W/m2
09:39 62.2 °F /  16.8 °C 54.9 °F /  12.7 °C 29.9in /  1012.2hPa Calm   2.5mph /  4km/h 76.8% 0in /  0.0mm 113 W/m2
09:44 62.4 °F /  16.9 °C 55.9 °F /  13.3 °C 29.9in /  1012.2hPa Calm   2.5mph /  4km/h 79.4% 0in /  0.0mm 116 W/m2
09:49 62.4 °F /  16.9 °C 55.9 °F /  13.3 °C 29.9in /  1012.2hPa Calm     79.2% 0in /  0.0mm 119 W/m2
09:54 62.8 °F /  17.1 °C 56.3 °F /  13.5 °C 29.9in /  1012.2hPa Calm   2.5mph /  4km/h 79.4% 0in /  0.0mm 122 W/m2
09:59 63 °F /  17.2 °C 56.3 °F /  13.5 °C 29.9in /  1012.2hPa Calm     79% 0in /  0.0mm 126 W/m2
10:04 63.1 °F /  17.3 °C 56.5 °F /  13.6 °C 29.9in /  1012.2hPa SE 0.4mph /  0.7km/h 4.9mph /  7.9km/h 78.7% 0in /  0.0mm 131 W/m2
10:09 63.5 °F /  17.5 °C 56.3 °F /  13.5 °C 29.9in /  1012.2hPa Calm   2.5mph /  4km/h 77.6% 0in /  0.0mm 134 W/m2
10:14 64 °F /  17.8 °C 57 °F /  13.9 °C 29.9in /  1012.2hPa Calm   2.5mph /  4km/h 77.8% 0in /  0.0mm 138 W/m2
10:19 64.9 °F /  18.3 °C 57.6 °F /  14.2 °C 29.9in /  1012.2hPa Calm   2.5mph /  4km/h 77% 0in /  0.0mm 145 W/m2
10:24 64.9 °F /  18.3 °C 57.9 °F /  14.4 °C 29.9in /  1012.2hPa SE 0.4mph /  0.6km/h 4.9mph /  7.9km/h 77.9% 0in /  0.0mm 150 W/m2
10:29 65.1 °F /  18.4 °C 58.5 °F /  14.7 °C 29.9in /  1012.5hPa Calm   4.9mph /  7.9km/h 79% 0in /  0.0mm 155 W/m2
10:34 64.8 °F /  18.2 °C 58.6 °F /  14.8 °C 29.9in /  1012.2hPa ESE 1mph /  1.6km/h 4.9mph /  7.9km/h 80.3% 0in /  0.0mm 161 W/m2
10:39 64 °F /  17.8 °C 57.6 °F /  14.2 °C 29.9in /  1012.2hPa SE 0.2mph /  0.4km/h 4.9mph /  7.9km/h 79.8% 0in /  0.0mm 166 W/m2
10:44 64 °F /  17.8 °C 57.4 °F /  14.1 °C 29.9in /  1012.2hPa SSE 0.4mph /  0.7km/h 2.5mph /  4km/h 78.9% 0in /  0.0mm 173 W/m2
10:49 64.4 °F /  18 °C 57.7 °F /  14.3 °C 29.9in /  1012.2hPa SE 0.7mph /  1.2km/h 4.9mph /  7.9km/h 79.1% 0in /  0.0mm 179 W/m2
10:54 64.6 °F /  18.1 °C 57.9 °F /  14.4 °C 29.9in /  1012.2hPa ESE 0.4mph /  0.7km/h 4.9mph /  7.9km/h 79.2% 0in /  0.0mm 185 W/m2
10:59 64.9 °F /  18.3 °C 58.5 °F /  14.7 °C 29.9in /  1012.2hPa SE 1.6mph /  2.6km/h 7.6mph /  12.2km/h 79.7% 0in /  0.0mm 190 W/m2
11:04 64.8 °F /  18.2 °C 59.2 °F /  15.1 °C 29.9in /  1012.2hPa ENE 0.5mph /  0.8km/h 7.6mph /  12.2km/h 81.8% 0in /  0.0mm 196 W/m2
11:09 64.4 °F /  18 °C 58.8 °F /  14.9 °C 29.9in /  1012.2hPa SE 0.9mph /  1.5km/h 7.6mph /  12.2km/h 81.8% 0in /  0.0mm 203 W/m2
11:14 64.4 °F /  18 °C 57.9 °F /  14.4 °C 29.9in /  1012.2hPa ESE 0.1mph /  0.2km/h 7.6mph /  12.2km/h 79.3% 0in /  0.0mm 211 W/m2
11:19 65.1 °F /  18.4 °C 58.5 °F /  14.7 °C 29.9in /  1012.2hPa SSE 0.9mph /  1.5km/h 4.9mph /  7.9km/h 79.3% 0in /  0.0mm 221 W/m2
11:24 65.1 °F /  18.4 °C 58.5 °F /  14.7 °C 29.9in /  1012.2hPa SE 0.4mph /  0.7km/h 4.9mph /  7.9km/h 78.8% 0in /  0.0mm 227 W/m2
11:29 65.1 °F /  18.4 °C 58.1 °F /  14.5 °C 29.9in /  1012.2hPa SE 0.4mph /  0.6km/h 4.9mph /  7.9km/h 78% 0in /  0.0mm 235 W/m2
11:34 65.3 °F /  18.5 °C 58.3 °F /  14.6 °C 29.9in /  1011.9hPa SE 1.1mph /  1.7km/h 4.9mph /  7.9km/h 77.9% 0in /  0.0mm 244 W/m2
11:39 65.5 °F /  18.6 °C 57.9 °F /  14.4 °C 29.9in /  1011.9hPa Calm   4.9mph /  7.9km/h 76.6% 0in /  0.0mm 251 W/m2
11:44 65.5 °F /  18.6 °C 57.9 °F /  14.4 °C 29.9in /  1011.9hPa SSE 1mph /  1.6km/h 4.9mph /  7.9km/h 76.3% 0in /  0.0mm 261 W/m2
11:49 65.7 °F /  18.7 °C 58.3 °F /  14.6 °C 29.9in /  1011.9hPa South 1.1mph /  1.8km/h 7.6mph /  12.2km/h 76.8% 0in /  0.0mm 269 W/m2
11:54 65.8 °F /  18.8 °C 58.1 °F /  14.5 °C 29.9in /  1011.9hPa SE 0.9mph /  1.5km/h 4.9mph /  7.9km/h 76.1% 0in /  0.0mm 279 W/m2
11:59 66.6 °F /  19.2 °C 58.5 °F /  14.7 °C 29.9in /  1011.9hPa SSE 0.7mph /  1.1km/h 4.9mph /  7.9km/h 75.2% 0in /  0.0mm 289 W/m2
12:04 66.6 °F /  19.2 °C 59 °F /  15 °C 29.9in /  1011.5hPa SSE 1.1mph /  1.7km/h 4.9mph /  7.9km/h 76.3% 0in /  0.0mm 296 W/m2
12:09 66.6 °F /  19.2 °C 59 °F /  15 °C 29.9in /  1011.5hPa ESE 1.6mph /  2.6km/h 7.6mph /  12.2km/h 76.6% 0in /  0.0mm 303 W/m2
12:14 66.4 °F /  19.1 °C 59.5 °F /  15.3 °C 29.9in /  1011.2hPa ESE 0.7mph /  1.1km/h 7.6mph /  12.2km/h 78.4% 0in /  0.0mm 311 W/m2
12:19 66 °F /  18.9 °C 59 °F /  15 °C 29.9in /  1011.2hPa SSE 0.7mph /  1.2km/h 7.6mph /  12.2km/h 77.9% 0in /  0.0mm 317 W/m2
12:24 65.8 °F /  18.8 °C 58.8 °F /  14.9 °C 29.9in /  1011.5hPa SSE 0.8mph /  1.3km/h 7.6mph /  12.2km/h 78.2% 0in /  0.0mm 326 W/m2
12:29 65.8 °F /  18.8 °C 58.8 °F /  14.9 °C 29.9in /  1011.2hPa East 0.7mph /  1.1km/h 7.6mph /  12.2km/h 77.8% 0in /  0.0mm 333 W/m2
12:34 65.7 °F /  18.7 °C 59.5 °F /  15.3 °C 29.9in /  1010.8hPa ENE 0.8mph /  1.3km/h 7.6mph /  12.2km/h 80.1% 0in /  0.0mm 338 W/m2
12:39 64.6 °F /  18.1 °C 58.5 °F /  14.7 °C 29.9in /  1010.8hPa SSE 1.7mph /  2.8km/h 7.6mph /  12.2km/h 80.4% 0in /  0.0mm 348 W/m2
12:44 64.8 °F /  18.2 °C 58.3 °F /  14.6 °C 29.9in /  1010.8hPa SE 0.7mph /  1.2km/h 7.6mph /  12.2km/h 79.6% 0in /  0.0mm 355 W/m2
12:49 64.9 °F /  18.3 °C 58.3 °F /  14.6 °C 29.9in /  1010.8hPa ESE 0.4mph /  0.6km/h 4.9mph /  7.9km/h 79.3% 0in /  0.0mm 359 W/m2
12:54 65.1 °F /  18.4 °C 57.9 °F /  14.4 °C 29.9in /  1010.8hPa SE 0.1mph /  0.1km/h 2.5mph /  4km/h 77.4% 0in /  0.0mm 362 W/m2
12:59 66.7 °F /  19.3 °C 59.5 °F /  15.3 °C 29.8in /  1010.5hPa South 0.1mph /  0.2km/h 4.9mph /  7.9km/h 77.8% 0in /  0.0mm 363 W/m2
13:04 66.7 °F /  19.3 °C 59.2 °F /  15.1 °C 29.8in /  1010.5hPa SSE 0.6mph /  1km/h 4.9mph /  7.9km/h 76.4% 0in /  0.0mm 368 W/m2
13:09 66.7 °F /  19.3 °C 59.2 °F /  15.1 °C 29.8in /  1010.5hPa SSE 0.2mph /  0.4km/h 2.5mph /  4km/h 76.4% 0in /  0.0mm 377 W/m2
13:14 66.7 °F /  19.3 °C 59.2 °F /  15.1 °C 29.8in /  1010.5hPa SE 0.9mph /  1.4km/h 4.9mph /  7.9km/h 76.7% 0in /  0.0mm 380 W/m2
13:19 66.7 °F /  19.3 °C 59.4 °F /  15.2 °C 29.8in /  1010.2hPa SE 0.1mph /  0.2km/h 4.9mph /  7.9km/h 76.8% 0in /  0.0mm 380 W/m2
13:24 66.7 °F /  19.3 °C 59.4 °F /  15.2 °C 29.8in /  1010.2hPa SSE 1.2mph /  1.9km/h 7.6mph /  12.2km/h 76.8% 0in /  0.0mm 381 W/m2
13:29 66.7 °F /  19.3 °C 58.8 °F /  14.9 °C 29.8in /  1010.2hPa SSE 0.7mph /  1.1km/h 7.6mph /  12.2km/h 75.3% 0in /  0.0mm 380 W/m2
13:34 66.7 °F /  19.3 °C 58.5 °F /  14.7 °C 29.8in /  1010.2hPa SSE 0.6mph /  1km/h 7.6mph /  12.2km/h 74.8% 0in /  0.0mm 373 W/m2
13:39 66.7 °F /  19.3 °C 58.1 °F /  14.5 °C 29.8in /  1010.2hPa SSE 0.2mph /  0.4km/h 2.5mph /  4km/h 74% 0in /  0.0mm 347 W/m2
13:44 66.7 °F /  19.3 °C 58.8 °F /  14.9 °C 29.8in /  1010.2hPa SE 0.7mph /  1.2km/h 7.6mph /  12.2km/h 75.6% 0in /  0.0mm 361 W/m2
13:49 66.7 °F /  19.3 °C 59 °F /  15 °C 29.8in /  1009.8hPa South 2.5mph /  4.1km/h 7.6mph /  12.2km/h 75.9% 0in /  0.0mm 353 W/m2
13:54 66.7 °F /  19.3 °C 58.6 °F /  14.8 °C 29.8in /  1009.8hPa South 2.9mph /  4.7km/h 10.1mph /  16.3km/h 75% 0in /  0.0mm 348 W/m2
13:59 66.7 °F /  19.3 °C 59 °F /  15 °C 29.8in /  1009.8hPa ESE 0.9mph /  1.4km/h 7.6mph /  12.2km/h 75.6% 0in /  0.0mm 361 W/m2
14:04 66.7 °F /  19.3 °C 59.2 °F /  15.1 °C 29.8in /  1009.8hPa SSE 1.9mph /  3km/h 10.1mph /  16.3km/h 76.2% 0in /  0.0mm 352 W/m2
14:09 66.9 °F /  19.4 °C 59.4 °F /  15.2 °C 29.8in /  1009.8hPa SSE 2.4mph /  3.9km/h 10.1mph /  16.3km/h 76.3% 0in /  0.0mm 361 W/m2
14:14 66.9 °F /  19.4 °C 59.9 °F /  15.5 °C 29.8in /  1009.8hPa SSE 3.1mph /  5km/h 10.1mph /  16.3km/h 78% 0in /  0.0mm 354 W/m2
14:19 67.5 °F /  19.7 °C 60.4 °F /  15.8 °C 29.8in /  1009.8hPa South 1.4mph /  2.3km/h 10.1mph /  16.3km/h 78% 0in /  0.0mm 348 W/m2
14:24 67.6 °F /  19.8 °C 60.8 °F /  16 °C 29.8in /  1009.8hPa SSE 4mph /  6.5km/h 10.1mph /  16.3km/h 78.6% 0in /  0.0mm 342 W/m2
14:29 67.5 °F /  19.7 °C 60.8 °F /  16 °C 29.8in /  1009.8hPa South 3mph /  4.9km/h 10.1mph /  16.3km/h 79% 0in /  0.0mm 337 W/m2
14:34 67.3 °F /  19.6 °C 60.8 °F /  16 °C 29.8in /  1009.8hPa SE 2.1mph /  3.3km/h 10.1mph /  16.3km/h 79.6% 0in /  0.0mm 326 W/m2
14:39 66.9 °F /  19.4 °C 60.4 °F /  15.8 °C 29.8in /  1009.8hPa SSE 2.5mph /  4km/h 7.6mph /  12.2km/h 79.6% 0in /  0.0mm 312 W/m2
14:44 66.6 °F /  19.2 °C 60.1 °F /  15.6 °C 29.8in /  1009.8hPa South 2.8mph /  4.5km/h 7.6mph /  12.2km/h 79.6% 0in /  0.0mm 301 W/m2
14:49 66.7 °F /  19.3 °C 59.7 °F /  15.4 °C 29.8in /  1009.8hPa South 0.9mph /  1.4km/h 7.6mph /  12.2km/h 77.8% 0in /  0.0mm 307 W/m2
14:54 66.7 °F /  19.3 °C 59.5 °F /  15.3 °C 29.8in /  1009.8hPa South 2.7mph /  4.4km/h 10.1mph /  16.3km/h 77.3% 0in /  0.0mm 283 W/m2
14:59 65.8 °F /  18.8 °C 59.2 °F /  15.1 °C 29.8in /  1009.8hPa SSE 4.4mph /  7.1km/h 10.1mph /  16.3km/h 79% 0in /  0.0mm 223 W/m2
15:04 65.5 °F /  18.6 °C 58.8 °F /  14.9 °C 29.8in /  1009.8hPa SSE 1.4mph /  2.3km/h 7.6mph /  12.2km/h 79% 0in /  0.0mm 238 W/m2
15:09 65.5 °F /  18.6 °C 58.6 °F /  14.8 °C 29.8in /  1009.8hPa SSE 2.7mph /  4.3km/h 7.6mph /  12.2km/h 78.6% 0in /  0.0mm 280 W/m2
15:14 65.7 °F /  18.7 °C 58.8 °F /  14.9 °C 29.8in /  1009.8hPa South 3.5mph /  5.6km/h 7.6mph /  12.2km/h 78.9% 0in /  0.0mm 281 W/m2
15:19 65.8 °F /  18.8 °C 59.4 °F /  15.2 °C 29.8in /  1009.8hPa SSW 2.5mph /  4km/h 7.6mph /  12.2km/h 79.2% 0in /  0.0mm 240 W/m2
15:24 66 °F /  18.9 °C 59.2 °F /  15.1 °C 29.8in /  1009.8hPa SSE 2.6mph /  4.2km/h 7.6mph /  12.2km/h 78.7% 0in /  0.0mm 227 W/m2
15:29 66 °F /  18.9 °C 59.4 °F /  15.2 °C 29.8in /  1009.5hPa South 1mph /  1.6km/h 4.9mph /  7.9km/h 79.1% 0in /  0.0mm 228 W/m2
15:34 65.8 °F /  18.8 °C 59.5 °F /  15.3 °C 29.8in /  1009.5hPa South 2.4mph /  3.9km/h 7.6mph /  12.2km/h 79.9% 0in /  0.0mm 245 W/m2
15:39 65.5 °F /  18.6 °C 59.5 °F /  15.3 °C 29.8in /  1009.1hPa SSE 1.8mph /  2.9km/h 7.6mph /  12.2km/h 80.6% 0in /  0.0mm 236 W/m2
15:44 65.3 °F /  18.5 °C 59.5 °F /  15.3 °C 29.8in /  1009.5hPa South 0.2mph /  0.3km/h 7.6mph /  12.2km/h 81.7% 0in /  0.0mm 231 W/m2
15:49 65.5 °F /  18.6 °C 59.4 °F /  15.2 °C 29.8in /  1009.5hPa South 1mph /  1.6km/h 4.9mph /  7.9km/h 80.4% 0in /  0.0mm 223 W/m2
15:54 65.3 °F /  18.5 °C 59.5 °F /  15.3 °C 29.8in /  1009.5hPa SSE 2.1mph /  3.4km/h 7.6mph /  12.2km/h 81.3% 0in /  0.0mm 90 W/m2
15:59 64.2 °F /  17.9 °C 58.8 °F /  14.9 °C 29.8in /  1009.5hPa South 0.1mph /  0.2km/h 2.5mph /  4km/h 82.6% 0in /  0.0mm 85 W/m2
16:04 63.7 °F /  17.6 °C 58.5 °F /  14.7 °C 29.8in /  1009.5hPa South 0.3mph /  0.5km/h 4.9mph /  7.9km/h 83% 0in /  0.0mm 74 W/m2
16:09 63.7 °F /  17.6 °C 58.5 °F /  14.7 °C 29.8in /  1009.5hPa South 0.4mph /  0.6km/h 4.9mph /  7.9km/h 83% 0in /  0.0mm 74 W/m2
16:14 63.5 °F /  17.5 °C 58.3 °F /  14.6 °C 29.8in /  1009.5hPa South 0.1mph /  0.2km/h 2.5mph /  4km/h 83% 0in /  0.0mm 77 W/m2
16:19 63.3 °F /  17.4 °C 57.7 °F /  14.3 °C 29.8in /  1009.5hPa Calm   2.5mph /  4km/h 82% 0in /  0.0mm 78 W/m2
16:24 63.1 °F /  17.3 °C 57.6 °F /  14.2 °C 29.8in /  1009.1hPa Calm     82% 0in /  0.0mm 76 W/m2
16:29 63.1 °F /  17.3 °C 57.7 °F /  14.3 °C 29.8in /  1009.1hPa Calm     82.2% 0in /  0.0mm 66 W/m2
16:34 63.1 °F /  17.3 °C 57.9 °F /  14.4 °C 29.8in /  1009.1hPa Calm     83% 0in /  0.0mm 58 W/m2
16:39 62.8 °F /  17.1 °C 57.6 °F /  14.2 °C 29.8in /  1009.1hPa Calm   2.5mph /  4km/h 83.1% 0in /  0.0mm 51 W/m2
16:44 62.6 °F /  17 °C 57.7 °F /  14.3 °C 29.8in /  1009.1hPa Calm   2.5mph /  4km/h 84% 0in /  0.0mm 48 W/m2
16:49 62.6 °F /  17 °C 57.7 °F /  14.3 °C 29.8in /  1009.5hPa Calm     84% 0in /  0.0mm 42 W/m2
16:54 62.6 °F /  17 °C 57.9 °F /  14.4 °C 29.8in /  1009.1hPa Calm     84.7% 0in /  0.0mm 36 W/m2
16:59 62.2 °F /  16.8 °C 57.7 °F /  14.3 °C 29.8in /  1009.1hPa Calm     85.8% 0in /  0.0mm 33 W/m2
17:04 61.9 °F /  16.6 °C 58.1 °F /  14.5 °C 29.8in /  1009.1hPa Calm     87.4% 0in /  0.0mm 28 W/m2
17:09 61.9 °F /  16.6 °C 58.3 °F /  14.6 °C 29.8in /  1009.1hPa Calm     88% 0in /  0.0mm 21 W/m2
17:14 61.7 °F /  16.5 °C 58.3 °F /  14.6 °C 29.8in /  1009.5hPa Calm     88.2% 0in /  0.0mm 17 W/m2
17:19 61.5 °F /  16.4 °C 57.9 °F /  14.4 °C 29.8in /  1009.5hPa South 0.2mph /  0.3km/h 2.5mph /  4km/h 88% 0in /  0.0mm 11 W/m2
17:24 61.3 °F /  16.3 °C 57.6 °F /  14.2 °C 29.8in /  1009.5hPa South 0.1mph /  0.2km/h 2.5mph /  4km/h 87.8% 0in /  0.0mm 6 W/m2
17:29 61.3 °F /  16.3 °C 57.7 °F /  14.3 °C 29.8in /  1009.5hPa Calm     88% 0in /  0.0mm 3 W/m2
17:34 61.2 °F /  16.2 °C 57.6 °F /  14.2 °C 29.8in /  1009.5hPa Calm     88% 0in /  0.0mm 0 W/m2
17:39 61.2 °F /  16.2 °C 57.7 °F /  14.3 °C 29.8in /  1009.5hPa Calm     88.8% 0in /  0.0mm 0 W/m2
17:44 61 °F /  16.1 °C 57.7 °F /  14.3 °C 29.8in /  1009.5hPa Calm     89.2% 0in /  0.0mm 0 W/m2
17:49 61 °F /  16.1 °C 58.1 °F /  14.5 °C 29.8in /  1009.5hPa Calm     90% 0in /  0.0mm 0 W/m2
17:54 61 °F /  16.1 °C 58.1 °F /  14.5 °C 29.8in /  1009.5hPa Calm     90.3% 0in /  0.0mm 0 W/m2
17:59 60.6 °F /  15.9 °C 57.9 °F /  14.4 °C 29.8in /  1009.8hPa Calm     91% 0in /  0.0mm 0 W/m2
18:04 60.3 °F /  15.7 °C 57.7 °F /  14.3 °C 29.8in /  1009.8hPa Calm     91.3% 0in /  0.0mm 0 W/m2
18:09 60.1 °F /  15.6 °C 57.7 °F /  14.3 °C 29.8in /  1009.5hPa South 0.1mph /  0.2km/h 2.5mph /  4km/h 92% 0in /  0.0mm 0 W/m2
18:14 60.1 °F /  15.6 °C 57.7 °F /  14.3 °C 29.8in /  1009.8hPa SSW 0.1mph /  0.2km/h 4.9mph /  7.9km/h 92% 0in /  0.0mm 0 W/m2
18:19 60.1 °F /  15.6 °C 58.1 °F /  14.5 °C 29.8in /  1009.8hPa SSW 1.7mph /  2.7km/h 7.6mph /  12.2km/h 92.8% 0in /  0.0mm 0 W/m2
18:24 60.1 °F /  15.6 °C 58.1 °F /  14.5 °C 29.8in /  1009.8hPa SSW 0.6mph /  1km/h 4.9mph /  7.9km/h 93.6% 0in /  0.0mm 0 W/m2
18:29 59.9 °F /  15.5 °C 58.1 °F /  14.5 °C 29.8in /  1009.8hPa SSE 0.2mph /  0.3km/h 4.9mph /  7.9km/h 94.2% 0in /  0.0mm 0 W/m2
18:34 59.9 °F /  15.5 °C 58.5 °F /  14.7 °C 29.8in /  1009.8hPa Calm   2.5mph /  4km/h 95% 0in /  0.0mm 0 W/m2
18:39 59.4 °F /  15.2 °C 58.3 °F /  14.6 °C 29.8in /  1009.8hPa Calm     96% 0in /  0.0mm 0 W/m2
18:44 59 °F /  15 °C 58.1 °F /  14.5 °C 29.8in /  1009.8hPa Calm     96.6% 0in /  0.0mm 0 W/m2
18:49 59 °F /  15 °C 58.1 °F /  14.5 °C 29.8in /  1009.8hPa Calm     97% 0in /  0.0mm 0 W/m2
18:54 58.8 °F /  14.9 °C 57.7 °F /  14.3 °C 29.8in /  1010.2hPa Calm     96.2% 0in /  0.0mm 0 W/m2
18:59 58.6 °F /  14.8 °C 57.6 °F /  14.2 °C 29.8in /  1010.2hPa Calm     96% 0in /  0.0mm 0 W/m2
19:04 58.3 °F /  14.6 °C 56.8 °F /  13.8 °C 29.8in /  1010.2hPa Calm     95% 0in /  0.0mm 0 W/m2
19:09 58.3 °F /  14.6 °C 56.8 °F /  13.8 °C 29.8in /  1010.2hPa Calm     95% 0in /  0.0mm 0 W/m2
19:14 58.3 °F /  14.6 °C 56.7 °F /  13.7 °C 29.8in /  1010.2hPa Calm     94.7% 0in /  0.0mm 0 W/m2
19:19 58.3 °F /  14.6 °C 57 °F /  13.9 °C 29.8in /  1010.2hPa Calm     95.6% 0in /  0.0mm 0 W/m2
19:24 58.3 °F /  14.6 °C 57.4 °F /  14.1 °C 29.8in /  1010.2hPa Calm     96.4% 0in /  0.0mm 0 W/m2
19:29 58.3 °F /  14.6 °C 57.2 °F /  14 °C 29.8in /  1010.2hPa SSW 0.7mph /  1.2km/h 4.9mph /  7.9km/h 96.1% 0in /  0.0mm 0 W/m2
19:34 58.3 °F /  14.6 °C 56.5 °F /  13.6 °C 29.8in /  1010.2hPa SSW 1.4mph /  2.3km/h 7.6mph /  12.2km/h 94.1% 0in /  0.0mm 0 W/m2
19:39 58.6 °F /  14.8 °C 56.8 °F /  13.8 °C 29.8in /  1010.2hPa SSW 0.6mph /  1km/h 4.9mph /  7.9km/h 93.9% 0in /  0.0mm 0 W/m2
19:44 59 °F /  15 °C 57.2 °F /  14 °C 29.8in /  1010.2hPa Calm   4.9mph /  7.9km/h 93.4% 0in /  0.0mm 0 W/m2
19:49 59 °F /  15 °C 57 °F /  13.9 °C 29.8in /  1010.2hPa Calm     93.1% 0in /  0.0mm 0 W/m2
19:54 59 °F /  15 °C 57.4 °F /  14.1 °C 29.8in /  1010.2hPa SSE 0.2mph /  0.3km/h 2.5mph /  4km/h 94.6% 0in /  0.0mm 0 W/m2
19:59 58.5 °F /  14.7 °C 57.6 °F /  14.2 °C 29.8in /  1010.5hPa South 0.1mph /  0.1km/h 2.5mph /  4km/h 97% 0in /  0.0mm 0 W/m2
20:04 57.6 °F /  14.2 °C 56.5 °F /  13.6 °C 29.8in /  1010.5hPa Calm   2.5mph /  4km/h 96.1% 0in /  0.0mm 0 W/m2
20:09 57.6 °F /  14.2 °C 56.7 °F /  13.7 °C 29.8in /  1010.5hPa SSW 1.7mph /  2.7km/h 7.6mph /  12.2km/h 97% 0in /  0.0mm 0 W/m2
20:14 57.6 °F /  14.2 °C 56.7 °F /  13.7 °C 29.8in /  1010.5hPa SSW 2.1mph /  3.3km/h 7.6mph /  12.2km/h 96.9% 0in /  0.0mm 0 W/m2
20:19 57.7 °F /  14.3 °C 56.5 °F /  13.6 °C 29.8in /  1010.5hPa SSW 1.4mph /  2.2km/h 7.6mph /  12.2km/h 95.8% 0in /  0.0mm 0 W/m2
20:24 58.1 °F /  14.5 °C 55.9 °F /  13.3 °C 29.8in /  1010.5hPa SW 0.7mph /  1.1km/h 4.9mph /  7.9km/h 93% 0in /  0.0mm 0 W/m2
20:29 57.9 °F /  14.4 °C 55.6 °F /  13.1 °C 29.8in /  1010.5hPa SW 0.2mph /  0.4km/h 2.5mph /  4km/h 92.2% 0in /  0.0mm 0 W/m2
20:34 57.9 °F /  14.4 °C 55.9 °F /  13.3 °C 29.8in /  1010.5hPa Calm   2.5mph /  4km/h 93.6% 0in /  0.0mm 0 W/m2
20:39 57.6 °F /  14.2 °C 55.6 °F /  13.1 °C 29.8in /  1010.5hPa SSW 0.1mph /  0.2km/h 2.5mph /  4km/h 93.2% 0in /  0.0mm 0 W/m2
20:44 57.2 °F /  14 °C 54.9 °F /  12.7 °C 29.8in /  1010.5hPa Calm   2.5mph /  4km/h 92% 0in /  0.0mm 0 W/m2
20:49 57.2 °F /  14 °C 54.9 °F /  12.7 °C 29.8in /  1010.5hPa Calm   2.5mph /  4km/h 91.4% 0in /  0.0mm 0 W/m2
20:54 57.2 °F /  14 °C 54.9 °F /  12.7 °C 29.8in /  1010.5hPa SW 0.3mph /  0.5km/h 2.5mph /  4km/h 91.5% 0in /  0.0mm 0 W/m2
20:59 57.2 °F /  14 °C 54 °F /  12.2 °C 29.9in /  1010.8hPa South 0.7mph /  1.2km/h 4.9mph /  7.9km/h 89.4% 0in /  0.0mm 0 W/m2
21:04 57.4 °F /  14.1 °C 53.6 °F /  12 °C 29.8in /  1010.5hPa SW 0.6mph /  1km/h 4.9mph /  7.9km/h 87.2% 0in /  0.0mm 0 W/m2
21:09 57.4 °F /  14.1 °C 53.8 °F /  12.1 °C 29.9in /  1010.8hPa Calm   2.5mph /  4km/h 87.7% 0in /  0.0mm 0 W/m2
21:14 57.2 °F /  14 °C 53.6 °F /  12 °C 29.9in /  1010.8hPa Calm     88.2% 0in /  0.0mm 0 W/m2
21:19 57 °F /  13.9 °C 53.6 °F /  12 °C 29.9in /  1010.8hPa Calm     88.8% 0in /  0.0mm 0 W/m2
21:24 56.5 °F /  13.6 °C 52.5 °F /  11.4 °C 29.9in /  1010.8hPa SSW 1.2mph /  2km/h 4.9mph /  7.9km/h 86.6% 0in /  0.0mm 0 W/m2
21:29 56.7 °F /  13.7 °C 52.2 °F /  11.2 °C 29.9in /  1010.8hPa SSW 1.2mph /  1.9km/h 4.9mph /  7.9km/h 85.2% 0in /  0.0mm 0 W/m2
21:34 56.7 °F /  13.7 °C 52.3 °F /  11.3 °C 29.9in /  1011.2hPa SSW 3.1mph /  5km/h 7.6mph /  12.2km/h 85.3% 0in /  0.0mm 0 W/m2
21:39 56.8 °F /  13.8 °C 52.3 °F /  11.3 °C 29.9in /  1011.2hPa South 1.7mph /  2.7km/h 7.6mph /  12.2km/h 84.9% 0in /  0.0mm 0 W/m2
21:44 57.6 °F /  14.2 °C 53.1 °F /  11.7 °C 29.9in /  1011.2hPa South 2.6mph /  4.2km/h 7.6mph /  12.2km/h 84.8% 0in /  0.0mm 0 W/m2
21:49 57.6 °F /  14.2 °C 52.9 °F /  11.6 °C 29.9in /  1011.5hPa South 1mph /  1.6km/h 7.6mph /  12.2km/h 84.4% 0in /  0.0mm 0 W/m2
21:54 57.6 °F /  14.2 °C 53.1 °F /  11.7 °C 29.9in /  1011.5hPa SSE 0.4mph /  0.7km/h 4.9mph /  7.9km/h 85% 0in /  0.0mm 0 W/m2
21:59 57.6 °F /  14.2 °C 53.4 °F /  11.9 °C 29.9in /  1011.5hPa South 0.2mph /  0.4km/h 4.9mph /  7.9km/h 86.2% 0in /  0.0mm 0 W/m2
22:04 56.8 °F /  13.8 °C 53.1 °F /  11.7 °C 29.9in /  1011.5hPa SSW 0.8mph /  1.3km/h 4.9mph /  7.9km/h 87% 0in /  0.0mm 0 W/m2
22:09 56.8 °F /  13.8 °C 53.2 °F /  11.8 °C 29.9in /  1011.9hPa South 1.3mph /  2.1km/h 10.1mph /  16.3km/h 87.6% 0in /  0.0mm 0 W/m2
22:14 56.8 °F /  13.8 °C 54 °F /  12.2 °C 29.9in /  1011.9hPa South 3.7mph /  5.9km/h 7.6mph /  12.2km/h 89.6% 0in /  0.0mm 0 W/m2
22:19 57 °F /  13.9 °C 54.3 °F /  12.4 °C 29.9in /  1011.9hPa South 2.7mph /  4.4km/h 7.6mph /  12.2km/h 90.4% 0in /  0.0mm 0 W/m2
22:24 57.6 °F /  14.2 °C 55.9 °F /  13.3 °C 29.9in /  1011.9hPa South 1.7mph /  2.7km/h 7.6mph /  12.2km/h 94.3% 0in /  0.0mm 0 W/m2
22:29 57.6 °F /  14.2 °C 56.5 °F /  13.6 °C 29.9in /  1011.9hPa South 1.7mph /  2.7km/h 4.9mph /  7.9km/h 96.3% 0in /  0.0mm 0 W/m2
22:34 57.6 °F /  14.2 °C 57.2 °F /  14 °C 29.9in /  1011.9hPa South 2mph /  3.2km/h 7.6mph /  12.2km/h 98.9% 0in /  0.0mm 0 W/m2
22:39 57.6 °F /  14.2 °C 57.2 °F /  14 °C 29.9in /  1011.9hPa SSW 0.6mph /  0.9km/h 4.9mph /  7.9km/h 99% 0in /  0.0mm 0 W/m2
22:44 57.6 °F /  14.2 °C 57.2 °F /  14 °C 29.9in /  1011.9hPa SSW 1.1mph /  1.7km/h 4.9mph /  7.9km/h 99% 0in /  0.0mm 0 W/m2
22:49 57.4 °F /  14.1 °C 57 °F /  13.9 °C 29.9in /  1011.9hPa Calm   4.9mph /  7.9km/h 99% 0in /  0.0mm 0 W/m2
22:54 57.4 °F /  14.1 °C 57 °F /  13.9 °C 29.9in /  1011.5hPa South 0.4mph /  0.7km/h 4.9mph /  7.9km/h 99% 0in /  0.0mm 0 W/m2
22:59 57.4 °F /  14.1 °C 57 °F /  13.9 °C 29.9in /  1011.9hPa SSE 0.6mph /  0.9km/h 4.9mph /  7.9km/h 99% 0in /  0.0mm 0 W/m2
23:04 57.2 °F /  14 °C 56.8 °F /  13.8 °C 29.9in /  1011.9hPa South 0.2mph /  0.4km/h 4.9mph /  7.9km/h 99% 0in /  0.0mm 0 W/m2
23:09 57.2 °F /  14 °C 56.8 °F /  13.8 °C 29.9in /  1011.9hPa South 0.4mph /  0.7km/h 4.9mph /  7.9km/h 99% 0in /  0.0mm 0 W/m2
23:14 57.2 °F /  14 °C 56.8 °F /  13.8 °C 29.9in /  1011.9hPa South 0.4mph /  0.7km/h 7.6mph /  12.2km/h 99% 0in /  0.0mm 0 W/m2
23:19 57.2 °F /  14 °C 56.8 °F /  13.8 °C 29.9in /  1011.9hPa SSE 0.1mph /  0.2km/h 7.6mph /  12.2km/h 99% 0in /  0.0mm 0 W/m2
23:24 57.2 °F /  14 °C 56.8 °F /  13.8 °C 29.9in /  1011.9hPa South 0.4mph /  0.6km/h 4.9mph /  7.9km/h 99% 0in /  0.0mm 0 W/m2
23:29 57 °F /  13.9 °C 56.7 °F /  13.7 °C 29.9in /  1011.9hPa Calm     99% 0in /  0.0mm 0 W/m2
23:34 57 °F /  13.9 °C 56.7 °F /  13.7 °C 29.9in /  1011.9hPa Calm     99% 0in /  0.0mm 0 W/m2
23:39 57 °F /  13.9 °C 56.7 °F /  13.7 °C 29.9in /  1011.9hPa South 0.2mph /  0.3km/h 2.5mph /  4km/h 99% 0in /  0.0mm 0 W/m2
23:44 56.8 °F /  13.8 °C 56.7 °F /  13.7 °C 29.9in /  1011.5hPa Calm     99% 0in /  0.0mm 0 W/m2
23:49 56.8 °F /  13.8 °C 56.5 °F /  13.6 °C 29.9in /  1011.9hPa Calm   2.5mph /  4km/h 99% 0in /  0.0mm 0 W/m2
23:54 57 °F /  13.9 °C 56.7 °F /  13.7 °C 29.9in /  1011.9hPa SSW 0.4mph /  0.6km/h 4.9mph /  7.9km/h 99% 0in /  0.0mm 0 W/m2
23:59 57 °F /  13.9 °C 56.7 °F /  13.7 °C 29.9in /  1011.5hPa Calm   2.5mph /  4km/h 99% 0in /  0.0mm 0 W/m2
Juneau County Weather
Compliments of Weather Underground - 2 mb